sensor_id;sensor_type;location;lat;lon;timestamp;pressure;altitude;pressure_sealevel;temperature;humidity
58534;BME280;44109;52.398;7.024;2022-10-16T00:01:43;100765.94;;;13.26;94.86
58534;BME280;44109;52.398;7.024;2022-10-16T00:04:10;100756.34;;;13.20;94.78
58534;BME280;44109;52.398;7.024;2022-10-16T00:06:39;100760.28;;;13.15;94.93
58534;BME280;44109;52.398;7.024;2022-10-16T00:09:07;100749.94;;;13.16;95.35
58534;BME280;44109;52.398;7.024;2022-10-16T00:11:36;100719.59;;;12.97;95.07
58534;BME280;44109;52.398;7.024;2022-10-16T00:14:08;100747.16;;;13.16;95.07
58534;BME280;44109;52.398;7.024;2022-10-16T00:16:39;100750.72;;;13.09;94.81
58534;BME280;44109;52.398;7.024;2022-10-16T00:19:07;100752.28;;;13.07;95.05
58534;BME280;44109;52.398;7.024;2022-10-16T00:21:36;100750.69;;;13.06;94.68
58534;BME280;44109;52.398;7.024;2022-10-16T00:24:05;100741.88;;;12.97;95.05
58534;BME280;44109;52.398;7.024;2022-10-16T00:26:35;100752.63;;;12.94;94.49
58534;BME280;44109;52.398;7.024;2022-10-16T00:29:04;100746.97;;;12.84;94.81
58534;BME280;44109;52.398;7.024;2022-10-16T00:31:34;100743.81;;;12.85;94.84
58534;BME280;44109;52.398;7.024;2022-10-16T00:34:02;100744.97;;;12.84;94.86
58534;BME280;44109;52.398;7.024;2022-10-16T00:36:29;100753.28;;;12.81;94.65
58534;BME280;44109;52.398;7.024;2022-10-16T00:38:58;100748.09;;;12.76;94.59
58534;BME280;44109;52.398;7.024;2022-10-16T00:41:27;100745.28;;;12.72;94.80
58534;BME280;44109;52.398;7.024;2022-10-16T00:43:56;100737.72;;;12.69;94.99
58534;BME280;44109;52.398;7.024;2022-10-16T00:46:28;100745.63;;;12.67;95.19
58534;BME280;44109;52.398;7.024;2022-10-16T00:49:02;100738.44;;;12.62;95.23
58534;BME280;44109;52.398;7.024;2022-10-16T00:51:37;100735.28;;;12.64;94.95
58534;BME280;44109;52.398;7.024;2022-10-16T00:54:09;100737.63;;;12.62;94.93
58534;BME280;44109;52.398;7.024;2022-10-16T00:56:40;100727.28;;;12.59;94.71
58534;BME280;44109;52.398;7.024;2022-10-16T00:59:14;100733.22;;;12.54;94.89
58534;BME280;44109;52.398;7.024;2022-10-16T01:01:45;100732.75;;;12.48;94.91
58534;BME280;44109;52.398;7.024;2022-10-16T01:04:14;100730.38;;;12.47;95.40
58534;BME280;44109;52.398;7.024;2022-10-16T01:06:47;100738.31;;;12.44;95.43
58534;BME280;44109;52.398;7.024;2022-10-16T01:09:29;100745.44;;;12.42;95.13
58534;BME280;44109;52.398;7.024;2022-10-16T01:12:08;100746.22;;;12.42;95.24
58534;BME280;44109;52.398;7.024;2022-10-16T01:14:46;100739.03;;;12.38;95.70
58534;BME280;44109;52.398;7.024;2022-10-16T01:17:24;100727.81;;;12.31;95.80
58534;BME280;44109;52.398;7.024;2022-10-16T01:20:06;100746.97;;;12.39;95.70
58534;BME280;44109;52.398;7.024;2022-10-16T01:22:44;100748.59;;;12.40;96.11
58534;BME280;44109;52.398;7.024;2022-10-16T01:25:22;100754.97;;;12.41;96.06
58534;BME280;44109;52.398;7.024;2022-10-16T01:28:05;100761.38;;;12.45;96.54
58534;BME280;44109;52.398;7.024;2022-10-16T01:30:40;100759.03;;;12.51;96.51
58534;BME280;44109;52.398;7.024;2022-10-16T01:33:13;100762.22;;;12.53;96.90
58534;BME280;44109;52.398;7.024;2022-10-16T01:35:48;100767.41;;;12.58;97.21
58534;BME280;44109;52.398;7.024;2022-10-16T01:38:25;100761.91;;;12.65;97.44
58534;BME280;44109;52.398;7.024;2022-10-16T01:41:00;100753.19;;;12.66;97.62
58534;BME280;44109;52.398;7.024;2022-10-16T01:43:37;100758.78;;;12.70;97.74
58534;BME280;44109;52.398;7.024;2022-10-16T01:46:08;100761.56;;;12.70;97.26
58534;BME280;44109;52.398;7.024;2022-10-16T01:48:39;100753.56;;;12.65;97.15
58534;BME280;44109;52.398;7.024;2022-10-16T01:51:11;100749.59;;;12.66;96.85
58534;BME280;44109;52.398;7.024;2022-10-16T01:53:41;100749.97;;;12.61;96.86
58534;BME280;44109;52.398;7.024;2022-10-16T01:56:15;100746.34;;;12.57;96.37
58534;BME280;44109;52.398;7.024;2022-10-16T01:58:50;100741.56;;;12.54;96.63
58534;BME280;44109;52.398;7.024;2022-10-16T02:01:23;100742.72;;;12.49;96.53
58534;BME280;44109;52.398;7.024;2022-10-16T02:03:57;100745.47;;;12.46;96.38
58534;BME280;44109;52.398;7.024;2022-10-16T02:06:28;100751.03;;;12.46;96.44
58534;BME280;44109;52.398;7.024;2022-10-16T02:08:56;100746.97;;;12.39;96.66
58534;BME280;44109;52.398;7.024;2022-10-16T02:11:24;100749.75;;;12.39;96.51
58534;BME280;44109;52.398;7.024;2022-10-16T02:13:55;100739.81;;;12.38;96.56
58534;BME280;44109;52.398;7.024;2022-10-16T02:16:33;100743.41;;;12.35;96.46
58534;BME280;44109;52.398;7.024;2022-10-16T02:19:02;100745.38;;;12.38;96.88
58534;BME280;44109;52.398;7.024;2022-10-16T02:21:36;100739.44;;;12.36;96.77
58534;BME280;44109;52.398;7.024;2022-10-16T02:24:16;100744.56;;;12.34;96.42
58534;BME280;44109;52.398;7.024;2022-10-16T02:26:57;100749.28;;;12.30;96.61
58534;BME280;44109;52.398;7.024;2022-10-16T02:29:37;100758.03;;;12.29;96.69
58534;BME280;44109;52.398;7.024;2022-10-16T02:32:12;100757.22;;;12.28;97.20
58534;BME280;44109;52.398;7.024;2022-10-16T02:34:43;100754.06;;;12.30;97.21
58534;BME280;44109;52.398;7.024;2022-10-16T02:37:12;100748.88;;;12.28;97.42
58534;BME280;44109;52.398;7.024;2022-10-16T02:39:41;100731.63;;;12.12;98.10
58534;BME280;44109;52.398;7.024;2022-10-16T02:42:10;100755.69;;;12.34;98.05
58534;BME280;44109;52.398;7.024;2022-10-16T02:44:39;100751.75;;;12.35;97.96
58534;BME280;44109;52.398;7.024;2022-10-16T02:47:07;100758.91;;;12.36;98.01
58534;BME280;44109;52.398;7.024;2022-10-16T02:49:35;100766.81;;;12.34;98.32
58534;BME280;44109;52.398;7.024;2022-10-16T02:52:02;100760.88;;;12.36;98.42
58534;BME280;44109;52.398;7.024;2022-10-16T02:54:30;100763.28;;;12.37;98.06
58534;BME280;44109;52.398;7.024;2022-10-16T02:56:58;100771.63;;;12.37;99.06
58534;BME280;44109;52.398;7.024;2022-10-16T02:59:25;100761.31;;;12.41;99.54
58534;BME280;44109;52.398;7.024;2022-10-16T03:01:54;100768.56;;;12.50;99.90
58534;BME280;44109;52.398;7.024;2022-10-16T03:04:21;100763.03;;;12.57;99.65
58534;BME280;44109;52.398;7.024;2022-10-16T03:06:49;100757.91;;;12.59;100.00
58534;BME280;44109;52.398;7.024;2022-10-16T03:09:16;100764.72;;;12.65;100.00
58534;BME280;44109;52.398;7.024;2022-10-16T03:11:44;100758.38;;;12.72;100.00
58534;BME280;44109;52.398;7.024;2022-10-16T03:14:11;100757.22;;;12.76;100.00
58534;BME280;44109;52.398;7.024;2022-10-16T03:16:39;100760.06;;;12.83;100.00
58534;BME280;44109;52.398;7.024;2022-10-16T03:19:08;100758.16;;;12.91;100.00
58534;BME280;44109;52.398;7.024;2022-10-16T03:21:35;100768.16;;;13.03;100.00
58534;BME280;44109;52.398;7.024;2022-10-16T03:24:03;100768.19;;;13.06;100.00
58534;BME280;44109;52.398;7.024;2022-10-16T03:26:31;100776.28;;;13.26;100.00
58534;BME280;44109;52.398;7.024;2022-10-16T03:28:58;100771.56;;;13.33;100.00
58534;BME280;44109;52.398;7.024;2022-10-16T03:31:28;100768.44;;;13.42;100.00
58534;BME280;44109;52.398;7.024;2022-10-16T03:33:56;100767.31;;;13.54;100.00
58534;BME280;44109;52.398;7.024;2022-10-16T03:36:25;100763.78;;;13.64;100.00
58534;BME280;44109;52.398;7.024;2022-10-16T03:38:52;100770.94;;;13.65;100.00
58534;BME280;44109;52.398;7.024;2022-10-16T03:41:20;100772.94;;;13.64;100.00
58534;BME280;44109;52.398;7.024;2022-10-16T03:43:47;100767.34;;;13.61;100.00
58534;BME280;44109;52.398;7.024;2022-10-16T03:46:15;100766.56;;;13.71;100.00
58534;BME280;44109;52.398;7.024;2022-10-16T03:48:42;100767.00;;;13.80;100.00
58534;BME280;44109;52.398;7.024;2022-10-16T03:51:10;100772.22;;;13.85;100.00
58534;BME280;44109;52.398;7.024;2022-10-16T03:53:39;100767.81;;;13.84;100.00
58534;BME280;44109;52.398;7.024;2022-10-16T03:56:06;100771.03;;;13.86;100.00
58534;BME280;44109;52.398;7.024;2022-10-16T03:58:34;100783.78;;;13.87;100.00
58534;BME280;44109;52.398;7.024;2022-10-16T04:01:01;100776.63;;;13.93;100.00
58534;BME280;44109;52.398;7.024;2022-10-16T04:03:29;100767.06;;;13.91;100.00
58534;BME280;44109;52.398;7.024;2022-10-16T04:05:56;100768.66;;;13.95;100.00
58534;BME280;44109;52.398;7.024;2022-10-16T04:08:24;100773.44;;;13.95;100.00
58534;BME280;44109;52.398;7.024;2022-10-16T04:10:53;100786.59;;;13.94;99.78
58534;BME280;44109;52.398;7.024;2022-10-16T04:13:20;100781.81;;;14.02;100.00
58534;BME280;44109;52.398;7.024;2022-10-16T04:15:48;100796.59;;;14.06;100.00
58534;BME280;44109;52.398;7.024;2022-10-16T04:18:15;100806.94;;;14.06;99.95
58534;BME280;44109;52.398;7.024;2022-10-16T04:20:43;100804.56;;;14.04;100.00
58534;BME280;44109;52.398;7.024;2022-10-16T04:23:10;100807.41;;;14.22;100.00
58534;BME280;44109;52.398;7.024;2022-10-16T04:25:38;100808.56;;;14.21;100.00
58534;BME280;44109;52.398;7.024;2022-10-16T04:28:07;100804.63;;;14.22;99.49
58534;BME280;44109;52.398;7.024;2022-10-16T04:30:34;100810.19;;;14.29;99.57
58534;BME280;44109;52.398;7.024;2022-10-16T04:33:02;100792.66;;;14.18;99.01
58534;BME280;44109;52.398;7.024;2022-10-16T04:35:29;100795.41;;;14.21;98.82
58534;BME280;44109;52.398;7.024;2022-10-16T04:37:57;100816.97;;;14.28;98.96
58534;BME280;44109;52.398;7.024;2022-10-16T04:40:25;100820.22;;;14.48;98.29
58534;BME280;44109;52.398;7.024;2022-10-16T04:42:52;100824.97;;;14.47;97.99
58534;BME280;44109;52.398;7.024;2022-10-16T04:45:21;100825.81;;;14.48;97.60
58534;BME280;44109;52.398;7.024;2022-10-16T04:47:48;100826.16;;;14.39;97.32
58534;BME280;44109;52.398;7.024;2022-10-16T04:50:16;100838.94;;;14.47;97.33
58534;BME280;44109;52.398;7.024;2022-10-16T04:52:43;100828.56;;;14.37;97.29
58534;BME280;44109;52.398;7.024;2022-10-16T04:55:11;100822.59;;;14.35;97.08
58534;BME280;44109;52.398;7.024;2022-10-16T04:57:39;100828.56;;;14.41;96.98
58534;BME280;44109;52.398;7.024;2022-10-16T05:00:08;100837.28;;;14.25;97.14
58534;BME280;44109;52.398;7.024;2022-10-16T05:02:38;100844.47;;;14.30;97.32
58534;BME280;44109;52.398;7.024;2022-10-16T05:05:06;100851.69;;;14.41;97.35
58534;BME280;44109;52.398;7.024;2022-10-16T05:07:34;100846.88;;;14.35;97.32
58534;BME280;44109;52.398;7.024;2022-10-16T05:10:02;100847.66;;;14.25;96.90
58534;BME280;44109;52.398;7.024;2022-10-16T05:12:29;100840.91;;;14.36;97.47
58534;BME280;44109;52.398;7.024;2022-10-16T05:14:57;100850.09;;;14.40;97.21
58534;BME280;44109;52.398;7.024;2022-10-16T05:17:25;100856.84;;;14.39;97.10
58534;BME280;44109;52.398;7.024;2022-10-16T05:19:54;100860.47;;;14.40;97.10
58534;BME280;44109;52.398;7.024;2022-10-16T05:22:22;100864.44;;;14.35;96.96
58534;BME280;44109;52.398;7.024;2022-10-16T05:24:49;100864.38;;;14.21;97.30
58534;BME280;44109;52.398;7.024;2022-10-16T05:27:17;100882.72;;;14.26;96.66
58534;BME280;44109;52.398;7.024;2022-10-16T05:29:45;100873.91;;;14.16;96.76
58534;BME280;44109;52.398;7.024;2022-10-16T05:32:14;100877.94;;;14.23;96.98
58534;BME280;44109;52.398;7.024;2022-10-16T05:34:43;100891.09;;;14.22;97.41
58534;BME280;44109;52.398;7.024;2022-10-16T05:37:12;100885.09;;;14.20;97.23
58534;BME280;44109;52.398;7.024;2022-10-16T05:39:40;100896.25;;;14.13;97.00
58534;BME280;44109;52.398;7.024;2022-10-16T05:42:07;100893.84;;;14.15;97.26
58534;BME280;44109;52.398;7.024;2022-10-16T05:44:35;100897.78;;;14.00;97.11
58534;BME280;44109;52.398;7.024;2022-10-16T05:47:02;100898.22;;;14.09;96.70
58534;BME280;44109;52.398;7.024;2022-10-16T05:49:30;100895.41;;;14.05;97.22
58534;BME280;44109;52.398;7.024;2022-10-16T05:51:57;100890.56;;;13.91;97.57
58534;BME280;44109;52.398;7.024;2022-10-16T05:54:26;100899.75;;;14.03;97.36
58534;BME280;44109;52.398;7.024;2022-10-16T05:56:53;100903.72;;;13.98;97.34
58534;BME280;44109;52.398;7.024;2022-10-16T05:59:21;100902.09;;;13.86;97.82
58534;BME280;44109;52.398;7.024;2022-10-16T06:01:48;100904.16;;;14.00;97.41
58534;BME280;44109;52.398;7.024;2022-10-16T06:04:16;100897.75;;;13.96;97.20
58534;BME280;44109;52.398;7.024;2022-10-16T06:06:43;100907.31;;;13.95;97.26
58534;BME280;44109;52.398;7.024;2022-10-16T06:09:11;100911.28;;;13.94;97.41
58534;BME280;44109;52.398;7.024;2022-10-16T06:11:40;100910.06;;;13.91;97.29
58534;BME280;44109;52.398;7.024;2022-10-16T06:14:08;100918.38;;;13.84;97.76
58534;BME280;44109;52.398;7.024;2022-10-16T06:16:36;100917.56;;;13.80;98.06
58534;BME280;44109;52.398;7.024;2022-10-16T06:19:04;100903.19;;;13.75;97.92
58534;BME280;44109;52.398;7.024;2022-10-16T06:21:34;100927.97;;;13.87;97.92
58534;BME280;44109;52.398;7.024;2022-10-16T06:24:01;100937.16;;;13.91;98.15
58534;BME280;44109;52.398;7.024;2022-10-16T06:26:30;100936.78;;;13.92;98.20
58534;BME280;44109;52.398;7.024;2022-10-16T06:29:00;100938.41;;;14.01;98.20
58534;BME280;44109;52.398;7.024;2022-10-16T06:31:29;100947.63;;;14.08;98.05
58534;BME280;44109;52.398;7.024;2022-10-16T06:33:59;100956.78;;;14.12;98.14
58534;BME280;44109;52.398;7.024;2022-10-16T06:36:28;100956.44;;;14.14;98.51
58534;BME280;44109;52.398;7.024;2022-10-16T06:38:56;100952.84;;;14.17;98.20
58534;BME280;44109;52.398;7.024;2022-10-16T06:41:23;100970.44;;;14.28;98.15
58534;BME280;44109;52.398;7.024;2022-10-16T06:43:51;100965.25;;;14.23;98.28
58534;BME280;44109;52.398;7.024;2022-10-16T06:46:22;100948.00;;;14.07;97.67
58534;BME280;44109;52.398;7.024;2022-10-16T06:48:52;100977.16;;;14.20;97.96
58534;BME280;44109;52.398;7.024;2022-10-16T06:51:21;100979.16;;;14.19;97.60
58534;BME280;44109;52.398;7.024;2022-10-16T06:53:51;100980.78;;;14.24;97.45
58534;BME280;44109;52.398;7.024;2022-10-16T06:56:21;100987.13;;;14.21;97.43
58534;BME280;44109;52.398;7.024;2022-10-16T06:58:51;100982.38;;;14.25;97.57
58534;BME280;44109;52.398;7.024;2022-10-16T07:01:22;100995.22;;;14.37;97.77
58534;BME280;44109;52.398;7.024;2022-10-16T07:03:51;101005.16;;;14.34;97.71
58534;BME280;44109;52.398;7.024;2022-10-16T07:06:21;101019.09;;;14.31;97.85
58534;BME280;44109;52.398;7.024;2022-10-16T07:08:50;101019.97;;;14.45;98.06
58534;BME280;44109;52.398;7.024;2022-10-16T07:11:19;100995.63;;;14.42;97.95
58534;BME280;44109;52.398;7.024;2022-10-16T07:13:49;101024.13;;;14.80;98.17
58534;BME280;44109;52.398;7.024;2022-10-16T07:16:21;101025.69;;;14.70;98.11
58534;BME280;44109;52.398;7.024;2022-10-16T07:18:50;101024.13;;;14.80;97.55
58534;BME280;44109;52.398;7.024;2022-10-16T07:21:24;101017.03;;;15.01;98.30
58534;BME280;44109;52.398;7.024;2022-10-16T07:23:53;101031.44;;;15.24;97.41
58534;BME280;44109;52.398;7.024;2022-10-16T07:26:23;101043.75;;;15.02;96.55
58534;BME280;44109;52.398;7.024;2022-10-16T07:28:51;101029.84;;;15.19;96.89
58534;BME280;44109;52.398;7.024;2022-10-16T07:31:20;101043.81;;;15.30;96.26
58534;BME280;44109;52.398;7.024;2022-10-16T07:33:49;101054.25;;;15.40;95.39
58534;BME280;44109;52.398;7.024;2022-10-16T07:36:19;101063.44;;;15.41;94.40
58534;BME280;44109;52.398;7.024;2022-10-16T07:38:47;101072.19;;;15.39;94.26
58534;BME280;44109;52.398;7.024;2022-10-16T07:41:16;101065.38;;;15.30;93.85
58534;BME280;44109;52.398;7.024;2022-10-16T07:43:45;101071.34;;;15.14;94.40
58534;BME280;44109;52.398;7.024;2022-10-16T07:46:13;101080.63;;;15.54;93.98
58534;BME280;44109;52.398;7.024;2022-10-16T07:48:44;101094.53;;;15.21;94.36
58534;BME280;44109;52.398;7.024;2022-10-16T07:51:14;101095.28;;;15.15;92.42
58534;BME280;44109;52.398;7.024;2022-10-16T07:53:43;101080.94;;;15.23;94.15
58534;BME280;44109;52.398;7.024;2022-10-16T07:56:11;101089.34;;;15.34;92.72
58534;BME280;44109;52.398;7.024;2022-10-16T07:58:39;101090.97;;;15.35;92.28
58534;BME280;44109;52.398;7.024;2022-10-16T08:01:08;101087.75;;;15.26;92.72
58534;BME280;44109;52.398;7.024;2022-10-16T08:03:37;101100.91;;;15.26;93.01
58534;BME280;44109;52.398;7.024;2022-10-16T08:06:06;101107.34;;;15.47;93.92
58534;BME280;44109;52.398;7.024;2022-10-16T08:08:34;101112.88;;;15.19;93.47
58534;BME280;44109;52.398;7.024;2022-10-16T08:11:02;101118.47;;;15.19;93.29
58534;BME280;44109;52.398;7.024;2022-10-16T08:13:30;101105.75;;;15.39;93.60
58534;BME280;44109;52.398;7.024;2022-10-16T08:15:58;101112.13;;;15.43;93.33
58534;BME280;44109;52.398;7.024;2022-10-16T08:18:25;101117.78;;;15.61;93.42
58534;BME280;44109;52.398;7.024;2022-10-16T08:20:56;101132.63;;;15.76;94.43
58534;BME280;44109;52.398;7.024;2022-10-16T08:23:28;101136.22;;;15.84;94.05
58534;BME280;44109;52.398;7.024;2022-10-16T08:26:02;101141.00;;;15.72;92.05
58534;BME280;44109;52.398;7.024;2022-10-16T08:28:31;101150.22;;;16.02;93.50
58534;BME280;44109;52.398;7.024;2022-10-16T08:31:05;101148.19;;;15.84;91.54
58534;BME280;44109;52.398;7.024;2022-10-16T08:33:37;101155.41;;;16.21;92.52
58534;BME280;44109;52.398;7.024;2022-10-16T08:36:06;101157.84;;;16.22;90.85
58534;BME280;44109;52.398;7.024;2022-10-16T08:38:35;101151.44;;;16.29;90.53
58534;BME280;44109;52.398;7.024;2022-10-16T08:41:17;101129.44;;;16.31;91.05
58534;BME280;44109;52.398;7.024;2022-10-16T08:44:07;101161.41;;;16.52;89.82
58534;BME280;44109;52.398;7.024;2022-10-16T08:46:56;101153.81;;;16.59;90.55
58534;BME280;44109;52.398;7.024;2022-10-16T08:49:30;101165.41;;;16.58;88.73
58534;BME280;44109;52.398;7.024;2022-10-16T08:51:58;101163.03;;;16.42;88.46
58534;BME280;44109;52.398;7.024;2022-10-16T08:54:32;101156.19;;;16.57;89.54
58534;BME280;44109;52.398;7.024;2022-10-16T08:57:11;101165.41;;;16.76;89.38
58534;BME280;44109;52.398;7.024;2022-10-16T08:59:41;101165.78;;;16.92;85.72
58534;BME280;44109;52.398;7.024;2022-10-16T09:02:23;101171.41;;;16.74;86.37
58534;BME280;44109;52.398;7.024;2022-10-16T09:05:22;101163.31;;;17.08;85.42
58534;BME280;44109;52.398;7.024;2022-10-16T09:08:01;101172.91;;;17.18;85.47
58534;BME280;44109;52.398;7.024;2022-10-16T09:10:45;101168.03;;;17.29;84.04
58534;BME280;44109;52.398;7.024;2022-10-16T09:13:27;101177.50;;;17.64;84.75
58534;BME280;44109;52.398;7.024;2022-10-16T09:16:03;101171.19;;;17.38;82.62
58534;BME280;44109;52.398;7.024;2022-10-16T09:18:49;101176.09;;;17.20;83.57
58534;BME280;44109;52.398;7.024;2022-10-16T09:21:26;101182.91;;;17.22;82.77
58534;BME280;44109;52.398;7.024;2022-10-16T09:23:59;101186.06;;;17.28;82.15
58534;BME280;44109;52.398;7.024;2022-10-16T09:26:35;101189.25;;;17.37;83.60
58534;BME280;44109;52.398;7.024;2022-10-16T09:29:03;101188.81;;;17.42;84.36
58534;BME280;44109;52.398;7.024;2022-10-16T09:31:31;101203.28;;;17.30;84.41
58534;BME280;44109;52.398;7.024;2022-10-16T09:34:00;101205.38;;;17.05;85.44
58534;BME280;44109;52.398;7.024;2022-10-16T09:36:36;101211.41;;;16.89;83.92
58534;BME280;44109;52.398;7.024;2022-10-16T09:39:08;101218.63;;;16.83;84.25
58534;BME280;44109;52.398;7.024;2022-10-16T09:41:41;101222.25;;;16.72;84.51
58534;BME280;44109;52.398;7.024;2022-10-16T09:44:19;101222.66;;;16.85;84.72
58534;BME280;44109;52.398;7.024;2022-10-16T09:47:01;101235.06;;;16.77;84.45
58534;BME280;44109;52.398;7.024;2022-10-16T09:49:29;101231.81;;;17.04;85.37
58534;BME280;44109;52.398;7.024;2022-10-16T09:52:10;101227.84;;;16.72;83.92
58534;BME280;44109;52.398;7.024;2022-10-16T09:54:49;101232.63;;;16.58;83.85
58534;BME280;44109;52.398;7.024;2022-10-16T09:57:20;101238.66;;;16.81;83.60
58534;BME280;44109;52.398;7.024;2022-10-16T09:59:49;101203.44;;;16.59;84.40
58534;BME280;44109;52.398;7.024;2022-10-16T10:02:25;101233.03;;;16.74;84.21
58534;BME280;44109;52.398;7.024;2022-10-16T10:04:57;101249.44;;;17.01;84.54
58534;BME280;44109;52.398;7.024;2022-10-16T10:07:26;101247.44;;;16.90;82.25
58534;BME280;44109;52.398;7.024;2022-10-16T10:09:59;101250.63;;;16.99;83.13
58534;BME280;44109;52.398;7.024;2022-10-16T10:12:31;101248.22;;;17.02;81.60
58534;BME280;44109;52.398;7.024;2022-10-16T10:15:06;101245.38;;;17.16;83.78
58534;BME280;44109;52.398;7.024;2022-10-16T10:17:46;101250.56;;;17.24;82.64
58534;BME280;44109;52.398;7.024;2022-10-16T10:20:23;101264.97;;;17.37;80.44
58534;BME280;44109;52.398;7.024;2022-10-16T10:22:53;101259.34;;;17.30;81.29
58534;BME280;44109;52.398;7.024;2022-10-16T10:25:38;101266.53;;;17.49;82.62
58534;BME280;44109;52.398;7.024;2022-10-16T10:28:41;101246.16;;;17.20;82.16
58534;BME280;44109;52.398;7.024;2022-10-16T10:31:22;101264.59;;;17.28;82.35
58534;BME280;44109;52.398;7.024;2022-10-16T10:34:01;101264.19;;;17.26;81.39
58534;BME280;44109;52.398;7.024;2022-10-16T10:36:52;101266.16;;;17.36;81.60
58534;BME280;44109;52.398;7.024;2022-10-16T10:39:33;101261.38;;;17.30;81.90
58534;BME280;44109;52.398;7.024;2022-10-16T10:42:15;101272.22;;;17.17;80.17
58534;BME280;44109;52.398;7.024;2022-10-16T10:45:03;101264.97;;;17.34;79.95
58534;BME280;44109;52.398;7.024;2022-10-16T10:47:55;101268.19;;;17.32;78.91
58534;BME280;44109;52.398;7.024;2022-10-16T10:50:34;101278.59;;;17.21;78.50
58534;BME280;44109;52.398;7.024;2022-10-16T10:53:27;101269.84;;;17.08;78.46
58534;BME280;44109;52.398;7.024;2022-10-16T10:56:16;101272.19;;;17.24;79.34
58534;BME280;44109;52.398;7.024;2022-10-16T10:59:11;101277.72;;;17.53;81.24
58534;BME280;44109;52.398;7.024;2022-10-16T11:02:01;101276.19;;;17.30;78.25
58534;BME280;44109;52.398;7.024;2022-10-16T11:04:54;101281.78;;;17.37;78.78
58534;BME280;44109;52.398;7.024;2022-10-16T11:07:48;101281.00;;;17.33;77.37
58534;BME280;44109;52.398;7.024;2022-10-16T11:10:22;101271.38;;;17.34;77.74
58534;BME280;44109;52.398;7.024;2022-10-16T11:12:55;101276.16;;;17.37;78.66
58534;BME280;44109;52.398;7.024;2022-10-16T11:15:32;101283.41;;;17.28;77.60
58534;BME280;44109;52.398;7.024;2022-10-16T11:18:10;101290.63;;;17.25;76.90
58534;BME280;44109;52.398;7.024;2022-10-16T11:20:47;101284.97;;;17.46;77.57
58534;BME280;44109;52.398;7.024;2022-10-16T11:23:25;101284.16;;;17.42;75.81
58534;BME280;44109;52.398;7.024;2022-10-16T11:25:59;101271.38;;;17.34;75.25
58534;BME280;44109;52.398;7.024;2022-10-16T11:28:35;101269.81;;;17.22;73.76
58534;BME280;44109;52.398;7.024;2022-10-16T11:31:13;101295.00;;;17.40;73.26
58534;BME280;44109;52.398;7.024;2022-10-16T11:33:51;101302.25;;;17.16;73.02
58534;BME280;44109;52.398;7.024;2022-10-16T11:36:32;101306.66;;;17.21;72.38
58534;BME280;44109;52.398;7.024;2022-10-16T11:39:20;101310.59;;;17.48;72.89
58534;BME280;44109;52.398;7.024;2022-10-16T11:41:53;101317.72;;;17.85;74.98
58534;BME280;44109;52.398;7.024;2022-10-16T11:44:34;101314.59;;;17.55;71.29
58534;BME280;44109;52.398;7.024;2022-10-16T11:47:27;101321.78;;;17.73;69.76
58534;BME280;44109;52.398;7.024;2022-10-16T11:50:09;101324.94;;;17.90;69.86
58534;BME280;44109;52.398;7.024;2022-10-16T11:52:53;101326.69;;;18.36;72.48
58534;BME280;44109;52.398;7.024;2022-10-16T11:55:28;101323.09;;;18.35;70.75
58534;BME280;44109;52.398;7.024;2022-10-16T11:58:05;101329.19;;;18.82;73.68
58534;BME280;44109;52.398;7.024;2022-10-16T12:00:41;101328.72;;;18.91;72.57
58534;BME280;44109;52.398;7.024;2022-10-16T12:03:19;101332.25;;;18.98;70.83
58534;BME280;44109;52.398;7.024;2022-10-16T12:06:13;101329.06;;;18.96;68.72
58534;BME280;44109;52.398;7.024;2022-10-16T12:08:49;101348.47;;;18.80;65.49
58534;BME280;44109;52.398;7.024;2022-10-16T12:11:24;101345.50;;;18.98;68.70
58534;BME280;44109;52.398;7.024;2022-10-16T12:14:33;101342.47;;;18.78;66.12
58534;BME280;44109;52.398;7.024;2022-10-16T12:17:22;101337.00;;;19.09;69.36
58534;BME280;44109;52.398;7.024;2022-10-16T12:19:58;101330.72;;;18.90;67.44
58534;BME280;44109;52.398;7.024;2022-10-16T12:22:30;101333.56;;;18.90;65.32
58534;BME280;44109;52.398;7.024;2022-10-16T12:24:59;101344.78;;;18.90;66.20
58534;BME280;44109;52.398;7.024;2022-10-16T12:27:29;101348.78;;;18.89;64.67
58534;BME280;44109;52.398;7.024;2022-10-16T12:29:59;101356.50;;;18.82;65.02
58534;BME280;44109;52.398;7.024;2022-10-16T12:32:33;101355.63;;;18.88;67.52
58534;BME280;44109;52.398;7.024;2022-10-16T12:35:03;101355.63;;;18.92;66.65
58534;BME280;44109;52.398;7.024;2022-10-16T12:37:36;101360.31;;;19.06;65.93
58534;BME280;44109;52.398;7.024;2022-10-16T12:40:13;101360.09;;;18.86;66.07
58534;BME280;44109;52.398;7.024;2022-10-16T12:42:43;101357.06;;;18.55;65.81
58534;BME280;44109;52.398;7.024;2022-10-16T12:45:26;101369.38;;;18.79;63.82
58534;BME280;44109;52.398;7.024;2022-10-16T12:47:56;101366.41;;;18.34;64.71
58534;BME280;44109;52.398;7.024;2022-10-16T12:50:27;101368.66;;;18.57;65.21
58534;BME280;44109;52.398;7.024;2022-10-16T12:52:59;101370.22;;;18.72;66.18
58534;BME280;44109;52.398;7.024;2022-10-16T12:55:35;101362.59;;;18.73;63.60
58534;BME280;44109;52.398;7.024;2022-10-16T12:58:28;101366.88;;;18.88;65.27
58534;BME280;44109;52.398;7.024;2022-10-16T13:01:16;101362.97;;;18.75;64.61
58534;BME280;44109;52.398;7.024;2022-10-16T13:04:04;101370.53;;;18.12;65.12
58534;BME280;44109;52.398;7.024;2022-10-16T13:06:53;101375.34;;;18.15;67.03
58534;BME280;44109;52.398;7.024;2022-10-16T13:09:38;101376.97;;;18.09;63.32
58534;BME280;44109;52.398;7.024;2022-10-16T13:12:26;101381.72;;;18.26;64.95
58534;BME280;44109;52.398;7.024;2022-10-16T13:15:24;101381.44;;;17.99;65.81
58534;BME280;44109;52.398;7.024;2022-10-16T13:18:12;101387.00;;;18.03;66.44